createdAt,value
2018-08-22T00:01:59.347Z,100343.04
2018-08-22T00:04:28.069Z,100340.14
2018-08-22T00:06:56.804Z,100342.56
2018-08-22T00:09:25.578Z,100339.83
2018-08-22T00:11:54.226Z,100340.38
2018-08-22T00:14:23.768Z,100343.51
2018-08-22T00:16:52.424Z,100345.30
2018-08-22T00:19:21.156Z,100344.83
2018-08-22T00:21:49.728Z,100347.95
2018-08-22T00:24:18.352Z,100343.97
2018-08-22T00:26:47.322Z,100343.81
2018-08-22T00:29:16.181Z,100349.67
2018-08-22T00:31:45.808Z,100342.98
2018-08-22T00:34:14.388Z,100343.23
2018-08-22T00:36:43.126Z,100348.60
2018-08-22T00:39:12.940Z,100352.73
2018-08-22T00:41:41.564Z,100356.66
2018-08-22T00:44:10.292Z,100355.17
2018-08-22T00:46:38.889Z,100357.36
2018-08-22T00:49:07.633Z,100353.45
2018-08-22T00:51:36.357Z,100354.52
2018-08-22T00:54:04.957Z,100355.37
2018-08-22T00:56:33.531Z,100351.72
2018-08-22T00:59:02.196Z,100350.44
2018-08-22T01:01:30.786Z,100354.34
2018-08-22T01:03:59.886Z,100351.05
2018-08-22T01:06:28.584Z,100352.09
2018-08-22T01:08:58.185Z,100350.55
2018-08-22T01:11:26.976Z,100349.03
2018-08-22T01:13:55.946Z,100356.75
2018-08-22T01:16:24.676Z,100360.09
2018-08-22T01:18:53.597Z,100360.88
2018-08-22T01:21:22.195Z,100360.55
2018-08-22T01:23:51.097Z,100362.20
2018-08-22T01:26:19.796Z,100358.87
2018-08-22T01:28:48.358Z,100362.85
2018-08-22T01:31:17.015Z,100358.73
2018-08-22T01:33:45.623Z,100353.70
2018-08-22T01:36:14.449Z,100367.83
2018-08-22T01:38:44.338Z,100361.76
2018-08-22T01:41:13.017Z,100363.55
2018-08-22T01:43:41.796Z,100367.23
2018-08-22T01:46:10.505Z,100370.33
2018-08-22T01:48:40.000Z,100374.05
2018-08-22T01:51:08.637Z,100368.74
2018-08-22T01:53:37.205Z,100370.86
2018-08-22T01:56:06.012Z,100366.75
2018-08-22T01:58:34.653Z,100371.52
2018-08-22T02:01:03.352Z,100368.30
2018-08-22T02:03:32.232Z,100367.52
2018-08-22T02:06:01.088Z,100371.12
2018-08-22T02:08:29.717Z,100365.06
2018-08-22T02:10:58.423Z,100367.98
2018-08-22T02:13:27.121Z,100366.12
2018-08-22T02:15:56.129Z,100364.53
2018-08-22T02:18:24.709Z,100367.91
2018-08-22T02:20:53.304Z,100364.81
2018-08-22T02:23:22.492Z,100370.43
2018-08-22T02:25:51.178Z,100368.93
2018-08-22T02:28:19.842Z,100368.66
2018-08-22T02:30:48.702Z,100370.13
2018-08-22T02:33:17.452Z,100377.93
2018-08-22T02:35:46.953Z,100375.96
2018-08-22T02:38:20.696Z,100372.55
2018-08-22T02:40:49.265Z,100365.06
2018-08-22T02:43:18.600Z,100366.78
2018-08-22T02:45:47.656Z,100366.45
2018-08-22T02:48:16.784Z,100374.41
2018-08-22T02:50:45.361Z,100377.39
2018-08-22T02:53:14.036Z,100379.73
2018-08-22T02:55:43.256Z,100378.34
2018-08-22T02:58:12.960Z,100370.97
2018-08-22T03:00:41.648Z,100372.52
2018-08-22T03:03:10.256Z,100374.25
2018-08-22T03:05:38.831Z,100381.75
2018-08-22T03:08:07.665Z,100376.28
2018-08-22T03:10:36.292Z,100367.59
2018-08-22T03:13:04.892Z,100370.78
2018-08-22T03:15:34.282Z,100351.63
2018-08-22T03:18:03.575Z,100369.76
2018-08-22T03:20:32.254Z,100370.55
2018-08-22T03:23:00.934Z,100371.02
2018-08-22T03:25:29.469Z,100374.53
2018-08-22T03:27:58.197Z,100377.98
2018-08-22T03:30:26.833Z,100385.80
2018-08-22T03:32:56.589Z,100381.95
2018-08-22T03:35:25.270Z,100379.04
2018-08-22T03:37:53.873Z,100382.22
2018-08-22T03:40:22.528Z,100379.97
2018-08-22T03:42:51.090Z,100380.56
2018-08-22T03:45:19.759Z,100386.13
2018-08-22T03:47:48.320Z,100384.11
2018-08-22T03:50:16.966Z,100383.70
2018-08-22T03:52:45.669Z,100376.88
2018-08-22T03:55:14.350Z,100377.47
2018-08-22T03:57:42.973Z,100376.94
2018-08-22T04:00:12.318Z,100374.89
2018-08-22T04:02:41.370Z,100375.16
2018-08-22T04:05:10.084Z,100375.72
2018-08-22T04:07:38.669Z,100377.42
2018-08-22T04:10:07.260Z,100375.42
2018-08-22T04:12:36.108Z,100375.95
2018-08-22T04:15:04.832Z,100378.70
2018-08-22T04:17:37.603Z,100379.62
2018-08-22T04:20:06.899Z,100384.99
2018-08-22T04:22:37.325Z,100382.05
2018-08-22T04:25:06.157Z,100378.88
2018-08-22T04:27:34.814Z,100381.39
2018-08-22T04:30:03.601Z,100374.30
2018-08-22T04:32:32.211Z,100381.69
2018-08-22T04:35:00.872Z,100383.05
2018-08-22T04:37:29.588Z,100390.23
2018-08-22T04:39:58.453Z,100388.44
2018-08-22T04:42:27.630Z,100391.45
2018-08-22T04:44:56.447Z,100392.45
2018-08-22T04:47:25.133Z,100387.62
2018-08-22T04:49:53.849Z,100391.67
2018-08-22T04:52:22.544Z,100390.75
2018-08-22T04:54:51.410Z,100393.78
2018-08-22T04:57:21.390Z,100390.83
2018-08-22T04:59:49.968Z,100393.34
2018-08-22T05:02:18.567Z,100392.06
2018-08-22T05:04:51.116Z,100391.59
2018-08-22T05:07:19.715Z,100386.22
2018-08-22T05:09:48.526Z,100389.45
2018-08-22T05:12:17.277Z,100385.64
2018-08-22T05:14:45.965Z,100388.76
2018-08-22T05:17:14.788Z,100383.07
2018-08-22T05:19:43.446Z,100383.07
2018-08-22T05:22:12.376Z,100381.96
2018-08-22T05:24:43.136Z,100375.23
2018-08-22T05:27:11.698Z,100377.18
2018-08-22T05:29:40.261Z,100377.23
2018-08-22T05:32:08.978Z,100379.39
2018-08-22T05:34:37.565Z,100374.80
2018-08-22T05:37:06.314Z,100381.64
2018-08-22T05:39:36.033Z,100374.29
2018-08-22T05:42:04.780Z,100376.48
2018-08-22T05:44:33.381Z,100377.95
2018-08-22T05:47:02.117Z,100374.36
2018-08-22T05:49:30.765Z,100374.56
2018-08-22T05:51:59.419Z,100375.45
2018-08-22T05:54:28.129Z,100377.08
2018-08-22T05:56:56.905Z,100379.84
2018-08-22T05:59:26.583Z,100386.97
2018-08-22T06:01:55.189Z,100377.14
2018-08-22T06:04:23.869Z,100372.74
2018-08-22T06:06:52.615Z,100374.05
2018-08-22T06:09:21.353Z,100373.07
2018-08-22T06:11:49.975Z,100375.98
2018-08-22T06:14:18.572Z,100378.64
2018-08-22T06:16:47.328Z,100380.20
2018-08-22T06:19:16.016Z,100378.59
2018-08-22T06:21:44.676Z,100378.70
2018-08-22T06:24:13.349Z,100375.83
2018-08-22T06:26:41.995Z,100378.10
2018-08-22T06:29:10.577Z,100377.61
2018-08-22T06:31:39.302Z,100372.41
2018-08-22T06:34:07.955Z,100374.41
2018-08-22T06:36:36.557Z,100365.04
2018-08-22T06:39:08.423Z,100367.25
2018-08-22T06:41:37.005Z,100366.36
2018-08-22T06:44:05.667Z,100363.99
2018-08-22T06:46:34.285Z,100361.85
2018-08-22T06:49:02.889Z,100362.67
2018-08-22T06:51:31.450Z,100367.34
2018-08-22T06:54:00.122Z,100366.04
2018-08-22T06:56:28.717Z,100364.14
2018-08-22T06:58:57.375Z,100356.47
2018-08-22T07:01:26.015Z,100354.08
2018-08-22T07:03:54.604Z,100360.11
2018-08-22T07:06:23.185Z,100355.48
2018-08-22T07:08:51.877Z,100357.73
2018-08-22T07:11:20.545Z,100358.89
2018-08-22T07:13:49.148Z,100356.22
2018-08-22T07:16:17.753Z,100355.27
2018-08-22T07:18:46.550Z,100353.31
2018-08-22T07:21:15.150Z,100355.75
2018-08-22T07:23:43.845Z,100358.34
2018-08-22T07:26:12.498Z,100353.44
2018-08-22T07:28:41.428Z,100356.75
2018-08-22T07:31:09.988Z,100356.27
2018-08-22T07:33:40.681Z,100350.86
2018-08-22T07:36:09.381Z,100352.17
2018-08-22T07:38:38.097Z,100355.30
2018-08-22T07:41:06.688Z,100352.44
2018-08-22T07:43:35.377Z,100352.16
2018-08-22T07:46:04.060Z,100354.20
2018-08-22T07:48:32.650Z,100352.00
2018-08-22T07:51:01.383Z,100353.66
2018-08-22T07:53:30.076Z,100352.51
2018-08-22T07:55:58.698Z,100350.47
2018-08-22T07:58:27.332Z,100355.17
2018-08-22T08:00:56.228Z,100350.48
2018-08-22T08:03:24.920Z,100350.45
2018-08-22T08:05:53.553Z,100347.56
2018-08-22T08:08:22.198Z,100347.38
2018-08-22T08:10:51.499Z,100346.94
2018-08-22T08:13:29.797Z,100343.52
2018-08-22T08:15:59.405Z,100346.67
2018-08-22T08:18:28.228Z,100341.17
2018-08-22T08:20:56.772Z,100342.67
2018-08-22T08:23:25.369Z,100344.11
2018-08-22T08:25:53.970Z,100339.75
2018-08-22T08:28:23.280Z,100339.13
2018-08-22T08:30:52.266Z,100339.71
2018-08-22T08:33:21.108Z,100337.78
2018-08-22T08:35:49.749Z,100335.07
2018-08-22T08:38:18.720Z,100330.97
2018-08-22T08:40:48.140Z,100332.52
2018-08-22T08:43:17.331Z,100326.62
2018-08-22T08:45:46.024Z,100320.45
2018-08-22T08:48:14.768Z,100321.52
2018-08-22T08:50:43.494Z,100318.01
2018-08-22T08:53:12.126Z,100323.70
2018-08-22T08:55:41.838Z,100319.44
2018-08-22T08:58:10.402Z,100314.81
2018-08-22T09:00:39.014Z,100313.77
2018-08-22T09:03:07.597Z,100320.80
2018-08-22T09:05:36.180Z,100313.91
2018-08-22T09:08:04.917Z,100310.55
2018-08-22T09:10:33.733Z,100304.22
2018-08-22T09:13:02.490Z,100297.45
2018-08-22T09:15:31.145Z,100291.22
2018-08-22T09:17:59.965Z,100292.02
2018-08-22T09:20:28.963Z,100288.45
2018-08-22T09:22:57.605Z,100299.13
2018-08-22T09:25:26.306Z,100290.59
2018-08-22T09:27:54.988Z,100283.91
2018-08-22T09:30:23.907Z,100284.41
2018-08-22T09:32:52.500Z,100286.26
2018-08-22T09:35:21.264Z,100280.13
2018-08-22T09:37:50.995Z,100270.95
2018-08-22T09:40:19.670Z,100275.80
2018-08-22T09:42:48.558Z,100273.92
2018-08-22T09:45:17.163Z,100267.02
2018-08-22T09:47:45.862Z,100273.25
2018-08-22T09:50:14.633Z,100271.59
2018-08-22T09:52:43.380Z,100267.90
2018-08-22T09:55:12.651Z,100273.25
2018-08-22T09:57:41.457Z,100270.67
2018-08-22T10:00:15.352Z,100272.09
2018-08-22T10:02:44.969Z,100266.95
2018-08-22T10:05:13.560Z,100261.64
2018-08-22T10:07:42.201Z,100260.72
2018-08-22T10:10:11.018Z,100248.91
2018-08-22T10:12:39.711Z,100249.72
2018-08-22T10:15:08.384Z,100246.72
2018-08-22T10:17:37.086Z,100255.90
2018-08-22T10:20:06.381Z,100246.47
2018-08-22T10:22:35.168Z,100248.09
2018-08-22T10:25:03.917Z,100249.70
2018-08-22T10:27:32.565Z,100244.19
2018-08-22T10:30:01.282Z,100235.55
2018-08-22T10:32:29.851Z,100237.78
2018-08-22T10:34:58.620Z,100232.67
2018-08-22T10:37:27.442Z,100228.92
2018-08-22T10:39:56.257Z,100226.73
2018-08-22T10:42:24.907Z,100220.48
2018-08-22T10:44:54.660Z,100221.02
2018-08-22T10:47:23.301Z,100224.45
2018-08-22T10:49:53.047Z,100214.28
2018-08-22T10:52:21.705Z,100216.00
2018-08-22T10:54:50.247Z,100213.80
2018-08-22T10:57:19.047Z,100215.45
2018-08-22T10:59:48.296Z,100202.87
2018-08-22T11:02:17.016Z,100209.13
2018-08-22T11:04:45.665Z,100204.73
2018-08-22T11:07:14.369Z,100203.66
2018-08-22T11:09:43.055Z,100203.26
2018-08-22T11:12:11.655Z,100198.27
2018-08-22T11:14:40.426Z,100199.75
2018-08-22T11:17:09.115Z,100196.94
2018-08-22T11:19:37.811Z,100191.88
2018-08-22T11:22:17.816Z,100192.95
2018-08-22T11:24:57.745Z,100187.80
2018-08-22T11:27:37.553Z,100185.73
2018-08-22T11:30:17.416Z,100179.27
2018-08-22T11:32:57.321Z,100173.08
2018-08-22T11:35:24.949Z,100169.45
2018-08-22T11:37:53.529Z,100171.77
2018-08-22T11:40:22.656Z,100167.02
2018-08-22T11:42:51.421Z,100164.88
2018-08-22T11:45:20.921Z,100165.83
2018-08-22T11:47:49.742Z,100162.61
2018-08-22T11:50:18.309Z,100163.19
2018-08-22T11:52:46.945Z,100165.68
2018-08-22T11:55:15.646Z,100157.25
2018-08-22T11:57:44.914Z,100152.58
2018-08-22T12:00:14.500Z,100144.23
2018-08-22T12:02:43.263Z,100142.45
2018-08-22T12:05:11.961Z,100137.11
2018-08-22T12:07:41.482Z,100138.70
2018-08-22T12:10:10.171Z,100131.08
2018-08-22T12:12:38.961Z,100134.38
2018-08-22T12:15:07.733Z,100134.00
2018-08-22T12:17:37.121Z,100127.73
2018-08-22T12:20:07.233Z,100130.67
2018-08-22T12:22:36.101Z,100119.83
2018-08-22T12:25:04.865Z,100118.66
2018-08-22T12:27:33.539Z,100114.05
2018-08-22T12:30:02.273Z,100121.90
2018-08-22T12:32:30.963Z,100117.63
2018-08-22T12:35:00.460Z,100120.95
2018-08-22T12:37:29.116Z,100114.31
2018-08-22T12:39:57.964Z,100110.03
2018-08-22T12:42:26.855Z,100109.80
2018-08-22T12:44:55.505Z,100103.48
2018-08-22T12:47:25.254Z,100107.09
2018-08-22T12:49:53.975Z,100101.52
2018-08-22T12:52:23.645Z,100092.63
2018-08-22T12:54:52.323Z,100089.00
2018-08-22T12:57:22.807Z,100083.33
2018-08-22T12:59:51.504Z,100082.72
2018-08-22T13:02:20.113Z,100086.18
2018-08-22T13:04:48.781Z,100092.23
2018-08-22T13:07:17.478Z,100088.58
2018-08-22T13:09:46.680Z,100079.33
2018-08-22T13:12:15.485Z,100067.26
2018-08-22T13:14:44.100Z,100065.73
2018-08-22T13:17:12.986Z,100064.73
2018-08-22T13:19:41.581Z,100062.01
2018-08-22T13:22:11.388Z,100057.03
2018-08-22T13:24:40.135Z,100058.74
2018-08-22T13:27:08.781Z,100053.99
2018-08-22T13:29:37.376Z,100051.03
2018-08-22T13:32:06.771Z,100045.67
2018-08-22T13:34:36.377Z,100055.75
2018-08-22T13:37:05.778Z,100047.68
2018-08-22T13:39:34.484Z,100054.78
2018-08-22T13:42:05.963Z,100043.94
2018-08-22T13:44:34.713Z,100040.23
2018-08-22T13:47:03.410Z,100037.20
2018-08-22T13:49:32.082Z,100039.57
2018-08-22T13:52:00.806Z,100034.29
2018-08-22T13:54:29.686Z,100034.41
2018-08-22T13:56:58.410Z,100034.36
2018-08-22T13:59:27.050Z,100032.12
2018-08-22T14:01:55.795Z,100028.17
2018-08-22T14:04:25.386Z,100032.66
2018-08-22T14:06:54.065Z,100029.77
2018-08-22T14:09:22.796Z,100024.09
2018-08-22T14:11:51.464Z,100029.81
2018-08-22T14:14:20.246Z,100029.80
2018-08-22T14:16:49.081Z,100032.23
2018-08-22T14:19:17.736Z,100028.22
2018-08-22T14:21:46.633Z,100020.59
2018-08-22T14:24:15.335Z,100014.16
2018-08-22T14:26:44.143Z,100017.94
2018-08-22T14:29:12.705Z,100010.27
2018-08-22T14:31:41.589Z,100011.89
2018-08-22T14:34:11.545Z,100006.61
2018-08-22T14:36:40.101Z,100004.71
2018-08-22T14:39:11.095Z,99999.61
2018-08-22T14:41:39.694Z,100000.41
2018-08-22T14:44:08.492Z,100003.81
2018-08-22T14:46:37.633Z,99998.41
2018-08-22T14:49:06.533Z,100003.31
2018-08-22T14:51:36.456Z,99992.83
2018-08-22T14:54:05.165Z,99996.64
2018-08-22T14:56:33.868Z,99988.28
2018-08-22T14:59:02.689Z,99982.62
2018-08-22T15:01:31.401Z,99987.66
2018-08-22T15:04:00.060Z,99988.39
2018-08-22T15:06:30.721Z,99985.32
2018-08-22T15:09:05.728Z,99981.92
2018-08-22T15:11:36.005Z,99983.78
2018-08-22T15:14:05.773Z,99981.62
2018-08-22T15:16:34.445Z,99974.21
2018-08-22T15:19:03.077Z,99977.20
2018-08-22T15:21:31.768Z,99974.54
2018-08-22T15:24:00.501Z,99961.38
2018-08-22T15:26:29.327Z,99967.64
2018-08-22T15:28:58.082Z,99961.52
2018-08-22T15:31:26.721Z,99961.27
2018-08-22T15:33:55.674Z,99962.36
2018-08-22T15:36:24.539Z,99953.55
2018-08-22T15:38:55.383Z,99949.75
2018-08-22T15:41:24.014Z,99953.38
2018-08-22T15:43:53.306Z,99953.15
2018-08-22T15:46:22.032Z,99955.14
2018-08-22T15:48:52.084Z,99944.12
2018-08-22T15:51:20.748Z,99948.91
2018-08-22T15:54:14.128Z,99942.26
2018-08-22T15:56:43.097Z,99936.23
2018-08-22T15:59:12.594Z,99937.89
2018-08-22T16:01:41.346Z,99936.70
2018-08-22T16:04:10.558Z,99932.00
2018-08-22T16:06:39.420Z,99932.70
2018-08-22T16:09:16.113Z,99931.71
2018-08-22T16:11:45.809Z,99925.94
2018-08-22T16:14:15.079Z,99928.23
2018-08-22T16:16:43.924Z,99928.86
2018-08-22T16:19:13.286Z,99919.98
2018-08-22T16:21:42.473Z,99926.48
2018-08-22T16:24:11.395Z,99921.96
2018-08-22T16:26:40.616Z,99919.08
2018-08-22T16:29:09.377Z,99914.75
2018-08-22T16:31:44.422Z,99912.63
2018-08-22T16:34:13.763Z,99912.78
2018-08-22T16:36:42.733Z,99918.47
2018-08-22T16:39:11.732Z,99916.63
2018-08-22T16:41:40.390Z,99916.27
2018-08-22T16:44:10.241Z,99917.86
2018-08-22T16:46:38.891Z,99919.31
2018-08-22T16:49:08.993Z,99920.48
2018-08-22T16:51:37.768Z,99916.80
2018-08-22T16:54:10.306Z,99919.46
2018-08-22T16:56:39.411Z,99921.02
2018-08-22T16:59:10.293Z,99917.92
2018-08-22T17:01:40.701Z,99914.12
2018-08-22T17:04:09.324Z,99911.26
2018-08-22T17:06:38.053Z,99916.58
2018-08-22T17:09:09.421Z,99913.21
2018-08-22T17:11:38.135Z,99917.10
2018-08-22T17:14:06.779Z,99919.09
2018-08-22T17:16:35.469Z,99913.97
2018-08-22T17:19:04.313Z,99907.80
2018-08-22T17:21:33.102Z,99911.84
2018-08-22T17:24:01.910Z,99915.33
2018-08-22T17:26:31.352Z,99912.39
2018-08-22T17:29:00.874Z,99913.01
2018-08-22T17:31:30.501Z,99918.49
2018-08-22T17:34:01.542Z,99922.57
2018-08-22T17:36:30.122Z,99913.48
2018-08-22T17:38:59.890Z,99926.95
2018-08-22T17:41:30.049Z,99916.02
2018-08-22T17:44:04.305Z,99923.64
2018-08-22T17:46:37.159Z,99917.38
2018-08-22T17:49:05.973Z,99918.09
2018-08-22T17:51:44.435Z,99917.70
2018-08-22T17:54:13.133Z,99920.02
2018-08-22T17:56:42.565Z,99920.66
2018-08-22T17:59:11.373Z,99927.98
2018-08-22T18:01:40.084Z,99924.17
2018-08-22T18:04:08.824Z,99928.30
2018-08-22T18:06:37.513Z,99930.03
2018-08-22T18:09:06.517Z,99934.95
2018-08-22T18:11:35.093Z,99938.33
2018-08-22T18:14:03.826Z,99946.95
2018-08-22T18:16:32.481Z,99949.62
2018-08-22T18:19:02.106Z,99944.90
2018-08-22T18:21:38.883Z,99949.83
2018-08-22T18:24:08.593Z,99950.87
2018-08-22T18:26:37.254Z,99955.34
2018-08-22T18:29:05.936Z,99956.42
2018-08-22T18:31:35.835Z,99954.64
2018-08-22T18:34:05.029Z,99962.67
2018-08-22T18:36:33.670Z,99960.44
2018-08-22T18:39:07.044Z,99956.30
2018-08-22T18:41:35.980Z,99961.32
2018-08-22T18:44:04.776Z,99967.39
2018-08-22T18:46:33.501Z,99965.69
2018-08-22T18:49:02.880Z,99968.23
2018-08-22T18:51:33.753Z,99964.41
2018-08-22T18:54:04.173Z,99961.98
2018-08-22T18:56:32.784Z,99962.98
2018-08-22T18:59:12.552Z,99962.15
2018-08-22T19:01:41.492Z,99967.10
2018-08-22T19:04:10.296Z,99963.83
2018-08-22T19:06:39.090Z,99956.28
2018-08-22T19:09:08.168Z,99955.92
2018-08-22T19:11:36.831Z,99953.38
2018-08-22T19:14:06.591Z,99957.19
2018-08-22T19:16:35.398Z,99962.50
2018-08-22T19:19:04.250Z,99958.66
2018-08-22T19:21:33.033Z,99956.91
2018-08-22T19:24:05.617Z,99962.48
2018-08-22T19:26:34.403Z,99968.27
2018-08-22T19:29:05.365Z,99967.73
2018-08-22T19:31:34.305Z,99961.27
2018-08-22T19:34:03.025Z,99961.81
2018-08-22T19:36:31.749Z,99958.02
2018-08-22T19:39:00.480Z,99959.85
2018-08-22T19:41:34.144Z,99965.73
2018-08-22T19:44:04.061Z,99957.70
2018-08-22T19:46:32.793Z,99964.38
2018-08-22T19:49:01.835Z,99961.59
2018-08-22T19:51:30.487Z,99961.50
2018-08-22T19:54:04.731Z,99961.77
2018-08-22T19:56:33.637Z,99962.03
2018-08-22T19:59:02.921Z,99968.70
2018-08-22T20:01:33.396Z,99961.26
2018-08-22T20:04:01.990Z,99966.90
2018-08-22T20:06:31.650Z,99968.88
2018-08-22T20:09:01.091Z,99969.14
2018-08-22T20:11:32.049Z,99963.70
2018-08-22T20:14:02.494Z,99959.92
2018-08-22T20:16:31.237Z,99965.93
2018-08-22T20:19:01.964Z,99958.22
2018-08-22T20:21:32.812Z,99961.17
2018-08-22T20:24:02.361Z,99961.80
2018-08-22T20:26:31.633Z,99954.36
2018-08-22T20:29:01.686Z,99958.03
2018-08-22T20:31:30.599Z,99959.02
2018-08-22T20:34:21.159Z,99955.61
2018-08-22T20:36:50.437Z,99953.77
2018-08-22T20:39:19.329Z,99967.44
2018-08-22T20:41:49.627Z,99961.70
2018-08-22T20:44:20.850Z,99953.27
2018-08-22T20:46:50.009Z,99952.72
2018-08-22T20:49:19.732Z,99950.66
2018-08-22T20:51:48.733Z,99956.16
2018-08-22T20:54:22.596Z,99952.48
2018-08-22T20:56:56.483Z,99952.98
2018-08-22T20:59:25.264Z,99952.52
2018-08-22T21:01:56.345Z,99951.83
2018-08-22T21:04:25.117Z,99949.41
2018-08-22T21:06:53.754Z,99955.40
2018-08-22T21:09:22.354Z,99954.31
2018-08-22T21:11:51.614Z,99963.62
2018-08-22T21:14:20.303Z,99961.91
2018-08-22T21:16:49.265Z,99958.30
2018-08-22T21:19:18.005Z,99963.45
2018-08-22T21:21:46.612Z,99958.33
2018-08-22T21:24:15.304Z,99964.43
2018-08-22T21:26:46.132Z,99956.23
2018-08-22T21:29:14.997Z,99959.05
2018-08-22T21:31:43.762Z,99965.28
2018-08-22T21:34:17.541Z,99963.45
2018-08-22T21:36:46.733Z,99959.78
2018-08-22T21:39:20.597Z,99947.75
2018-08-22T21:41:50.695Z,99949.56
2018-08-22T21:44:20.649Z,99947.59
2018-08-22T21:47:11.481Z,99951.14
2018-08-22T21:49:40.237Z,99951.01
2018-08-22T21:52:08.873Z,99952.97
2018-08-22T21:54:38.107Z,99949.20
2018-08-22T21:57:06.785Z,99951.16
2018-08-22T21:59:35.460Z,99961.91
2018-08-22T22:02:11.094Z,99949.88
2018-08-22T22:04:41.098Z,99952.47
2018-08-22T22:07:10.973Z,99950.53
2018-08-22T22:09:40.424Z,99951.07
2018-08-22T22:12:14.249Z,99947.79
2018-08-22T22:14:44.440Z,99940.75
2018-08-22T22:17:13.193Z,99944.73
2018-08-22T22:19:41.779Z,99942.11
2018-08-22T22:22:10.326Z,99943.92
2018-08-22T22:24:49.486Z,99952.03
2018-08-22T22:27:18.168Z,99946.92
2018-08-22T22:29:47.002Z,99951.84
2018-08-22T22:32:15.745Z,99950.39
2018-08-22T22:34:44.337Z,99954.45
2018-08-22T22:37:13.337Z,99942.38
2018-08-22T22:39:43.041Z,99940.92
2018-08-22T22:42:17.391Z,99938.12
2018-08-22T22:44:50.259Z,99940.59
2018-08-22T22:47:24.295Z,99939.98
2018-08-22T22:49:53.258Z,99938.67
2018-08-22T22:52:30.230Z,99939.03
2018-08-22T22:55:04.454Z,99940.82
2018-08-22T22:57:34.799Z,99936.34
2018-08-22T23:00:04.405Z,99939.13
2018-08-22T23:02:33.791Z,99940.97
2018-08-22T23:05:02.785Z,99931.70
2018-08-22T23:07:39.501Z,99934.37
2018-08-22T23:10:12.065Z,99930.83
2018-08-22T23:12:43.051Z,99929.24
2018-08-22T23:15:14.781Z,99926.80
2018-08-22T23:17:43.929Z,99927.28
2018-08-22T23:20:45.216Z,99919.48
2018-08-22T23:23:26.885Z,99916.45
2018-08-22T23:25:58.701Z,99919.49
2018-08-22T23:28:27.410Z,99919.59
2018-08-22T23:30:55.989Z,99916.31
2018-08-22T23:33:24.749Z,99915.46
2018-08-22T23:35:54.506Z,99918.16
2018-08-22T23:38:28.458Z,99910.72
2018-08-22T23:40:57.350Z,99913.12
2018-08-22T23:43:26.477Z,99909.66
2018-08-22T23:45:57.986Z,99908.18
2018-08-22T23:48:31.708Z,99911.31
2018-08-22T23:51:03.817Z,99913.37
2018-08-22T23:53:38.467Z,99905.91
2018-08-22T23:56:16.483Z,99904.16
2018-08-22T23:58:46.133Z,99898.67
